createdAt,value
2018-07-08T00:00:12.218Z,0.00
2018-07-08T00:01:12.210Z,0.00
2018-07-08T00:02:12.189Z,0.00
2018-07-08T00:03:12.173Z,0.00
2018-07-08T00:04:12.161Z,0.00
2018-07-08T00:05:12.145Z,0.00
2018-07-08T00:06:12.131Z,0.00
2018-07-08T00:07:12.116Z,0.00
2018-07-08T00:08:12.102Z,0.00
2018-07-08T00:09:12.089Z,0.00
2018-07-08T00:10:12.071Z,0.00
2018-07-08T00:11:12.065Z,0.00
2018-07-08T00:12:12.045Z,0.00
2018-07-08T00:13:12.035Z,0.00
2018-07-08T00:14:12.020Z,0.00
2018-07-08T00:15:12.015Z,0.00
2018-07-08T00:16:11.985Z,0.00
2018-07-08T00:17:11.971Z,0.00
2018-07-08T00:18:11.957Z,0.00
2018-07-08T00:19:11.943Z,0.00
2018-07-08T00:20:11.926Z,0.00
2018-07-08T00:21:11.912Z,0.00
2018-07-08T00:22:11.899Z,0.00
2018-07-08T00:23:11.885Z,0.00
2018-07-08T00:24:11.868Z,0.00
2018-07-08T00:25:11.854Z,0.00
2018-07-08T00:26:11.838Z,0.00
2018-07-08T00:27:11.825Z,0.00
2018-07-08T00:28:11.817Z,0.00
2018-07-08T00:29:11.807Z,0.00
2018-07-08T00:30:11.781Z,0.00
2018-07-08T00:31:11.765Z,0.00
2018-07-08T00:32:11.749Z,0.00
2018-07-08T00:33:11.735Z,0.00
2018-07-08T00:34:11.729Z,0.00
2018-07-08T00:35:11.704Z,0.00
2018-07-08T00:36:11.692Z,0.00
2018-07-08T00:37:11.675Z,0.00
2018-07-08T00:38:11.662Z,0.00
2018-07-08T00:39:11.653Z,0.00
2018-07-08T00:40:11.632Z,0.00
2018-07-08T00:41:11.625Z,0.00
2018-07-08T00:42:11.613Z,0.00
2018-07-08T00:43:11.589Z,0.00
2018-07-08T00:44:11.572Z,0.00
2018-07-08T00:45:11.558Z,0.00
2018-07-08T00:46:11.583Z,0.00
2018-07-08T00:47:11.528Z,0.00
2018-07-08T00:48:11.514Z,0.00
2018-07-08T00:49:11.499Z,0.00
2018-07-08T00:50:11.483Z,0.00
2018-07-08T00:51:11.467Z,0.00
2018-07-08T00:52:11.462Z,0.00
2018-07-08T00:53:11.445Z,0.00
2018-07-08T00:54:11.426Z,0.00
2018-07-08T00:55:11.408Z,0.00
2018-07-08T00:56:11.404Z,0.00
2018-07-08T00:57:11.379Z,0.00
2018-07-08T00:58:11.364Z,0.00
2018-07-08T00:59:11.348Z,0.00
2018-07-08T01:00:11.334Z,0.00
2018-07-08T01:01:11.320Z,0.00
2018-07-08T01:02:11.306Z,0.00
2018-07-08T01:03:11.293Z,0.00
2018-07-08T01:04:11.275Z,0.00
2018-07-08T01:05:11.259Z,0.00
2018-07-08T01:06:11.244Z,0.00
2018-07-08T01:07:11.229Z,0.00
2018-07-08T01:08:11.214Z,0.00
2018-07-08T01:09:11.199Z,0.00
2018-07-08T01:10:11.192Z,0.00
2018-07-08T01:11:11.168Z,0.00
2018-07-08T01:12:11.156Z,0.00
2018-07-08T01:13:11.139Z,0.00
2018-07-08T01:14:11.130Z,0.00
2018-07-08T01:15:11.125Z,0.00
2018-07-08T01:16:11.109Z,0.00
2018-07-08T01:17:11.079Z,0.00
2018-07-08T01:18:11.064Z,0.00
2018-07-08T01:19:11.049Z,0.00
2018-07-08T01:20:11.033Z,0.00
2018-07-08T01:21:11.017Z,0.00
2018-07-08T01:22:11.005Z,0.00
2018-07-08T01:23:10.986Z,0.00
2018-07-08T01:24:10.973Z,0.00
2018-07-08T01:25:11.008Z,0.00
2018-07-08T01:26:10.944Z,0.00
2018-07-08T01:27:10.927Z,0.00
2018-07-08T01:28:10.912Z,0.00
2018-07-08T01:29:10.896Z,0.00
2018-07-08T01:30:10.883Z,0.00
2018-07-08T01:31:10.867Z,0.00
2018-07-08T01:32:10.851Z,0.00
2018-07-08T01:33:10.845Z,0.00
2018-07-08T01:34:10.831Z,0.00
2018-07-08T01:35:10.806Z,0.00
2018-07-08T01:36:10.790Z,0.00
2018-07-08T01:37:10.776Z,0.00
2018-07-08T01:38:10.767Z,0.00
2018-07-08T01:39:10.743Z,0.00
2018-07-08T01:40:10.730Z,0.00
2018-07-08T01:41:10.714Z,0.00
2018-07-08T01:42:10.703Z,0.00
2018-07-08T01:43:10.682Z,0.00
2018-07-08T01:44:10.671Z,0.00
2018-07-08T01:45:10.655Z,0.00
2018-07-08T01:46:10.639Z,0.00
2018-07-08T01:47:10.624Z,0.00
2018-07-08T01:48:10.609Z,0.00
2018-07-08T01:49:10.602Z,0.00
2018-07-08T01:50:10.577Z,0.00
2018-07-08T01:51:10.570Z,0.00
2018-07-08T01:52:10.597Z,0.00
2018-07-08T01:53:10.532Z,0.00
2018-07-08T01:54:10.517Z,0.00
2018-07-08T01:55:10.520Z,0.00
2018-07-08T01:56:10.484Z,0.00
2018-07-08T01:57:10.469Z,0.00
2018-07-08T01:58:10.455Z,0.00
2018-07-08T01:59:10.440Z,0.00
2018-07-08T02:00:10.423Z,0.00
2018-07-08T02:01:10.425Z,0.00
2018-07-08T02:02:10.392Z,0.00
2018-07-08T02:03:10.376Z,0.00
2018-07-08T02:04:10.361Z,0.00
2018-07-08T02:05:10.349Z,0.00
2018-07-08T02:06:10.331Z,0.00
2018-07-08T02:07:10.317Z,0.00
2018-07-08T02:08:10.302Z,0.00
2018-07-08T02:09:10.287Z,0.00
2018-07-08T02:10:10.274Z,0.00
2018-07-08T02:11:10.254Z,0.00
2018-07-08T02:12:10.238Z,0.00
2018-07-08T02:13:10.234Z,0.00
2018-07-08T02:14:10.208Z,0.00
2018-07-08T02:15:10.192Z,0.00
2018-07-08T02:16:10.177Z,0.00
2018-07-08T02:17:10.161Z,0.00
2018-07-08T02:18:10.146Z,0.00
2018-07-08T02:19:10.132Z,0.00
2018-07-08T02:20:10.117Z,0.00
2018-07-08T02:21:10.101Z,0.00
2018-07-08T02:22:10.091Z,0.00
2018-07-08T02:23:10.068Z,0.00
2018-07-08T02:24:10.057Z,0.00
2018-07-08T02:25:10.037Z,0.00
2018-07-08T02:26:10.032Z,0.00
2018-07-08T02:27:10.017Z,0.00
2018-07-08T02:28:09.992Z,0.00
2018-07-08T02:29:09.975Z,0.00
2018-07-08T02:30:09.960Z,0.00
2018-07-08T02:31:09.944Z,0.00
2018-07-08T02:32:09.928Z,0.00
2018-07-08T02:33:09.914Z,0.00
2018-07-08T02:34:09.905Z,0.00
2018-07-08T02:35:09.883Z,0.00
2018-07-08T02:36:09.867Z,0.00
2018-07-08T02:37:09.853Z,0.00
2018-07-08T02:38:09.843Z,0.00
2018-07-08T02:39:09.819Z,0.00
2018-07-08T02:40:09.805Z,0.00
2018-07-08T02:41:09.789Z,0.00
2018-07-08T02:42:09.773Z,0.00
2018-07-08T02:43:09.758Z,0.00
2018-07-08T02:44:09.741Z,0.00
2018-07-08T02:45:09.740Z,0.00
2018-07-08T02:46:09.713Z,0.00
2018-07-08T02:47:09.694Z,0.00
2018-07-08T02:48:09.678Z,0.00
2018-07-08T02:49:09.667Z,0.00
2018-07-08T02:50:09.656Z,0.00
2018-07-08T02:51:09.632Z,0.00
2018-07-08T02:52:09.617Z,0.00
2018-07-08T02:53:09.609Z,0.00
2018-07-08T02:54:09.587Z,0.00
2018-07-08T02:55:09.574Z,0.00
2018-07-08T02:56:09.557Z,0.00
2018-07-08T02:57:09.540Z,0.00
2018-07-08T02:58:09.524Z,0.00
2018-07-08T02:59:09.507Z,0.00
2018-07-08T03:00:09.493Z,0.00
2018-07-08T03:01:09.476Z,0.00
2018-07-08T03:02:09.462Z,0.00
2018-07-08T03:03:09.445Z,0.00
2018-07-08T03:04:09.430Z,0.00
2018-07-08T03:05:09.421Z,0.00
2018-07-08T03:06:09.403Z,0.00
2018-07-08T03:07:09.437Z,5.63
2018-07-08T03:08:09.371Z,5.63
2018-07-08T03:09:09.352Z,5.63
2018-07-08T03:10:09.335Z,5.63
2018-07-08T03:11:09.318Z,5.63
2018-07-08T03:12:09.312Z,5.63
2018-07-08T03:13:09.296Z,5.63
2018-07-08T03:14:09.281Z,5.63
2018-07-08T03:15:09.258Z,5.63
2018-07-08T03:16:09.250Z,5.63
2018-07-08T03:17:09.228Z,11.25
2018-07-08T03:18:09.209Z,11.25
2018-07-08T03:19:09.194Z,11.25
2018-07-08T03:20:09.176Z,11.25
2018-07-08T03:21:09.162Z,11.25
2018-07-08T03:22:09.146Z,11.25
2018-07-08T03:23:09.130Z,16.88
2018-07-08T03:24:09.120Z,16.88
2018-07-08T03:25:09.098Z,16.88
2018-07-08T03:26:09.182Z,16.88
2018-07-08T03:27:09.067Z,16.88
2018-07-08T03:28:09.052Z,22.50
2018-07-08T03:29:09.036Z,22.50
2018-07-08T03:30:09.020Z,22.50
2018-07-08T03:31:09.009Z,22.50
2018-07-08T03:32:09.001Z,28.13
2018-07-08T03:33:08.972Z,28.13
2018-07-08T03:34:08.957Z,28.13
2018-07-08T03:35:08.942Z,28.13
2018-07-08T03:36:08.927Z,33.75
2018-07-08T03:37:08.909Z,33.75
2018-07-08T03:38:08.896Z,33.75
2018-07-08T03:39:08.880Z,33.75
2018-07-08T03:40:08.861Z,39.38
2018-07-08T03:41:08.846Z,39.38
2018-07-08T03:42:08.830Z,39.38
2018-07-08T03:43:08.814Z,45.00
2018-07-08T03:44:08.804Z,45.00
2018-07-08T03:45:08.783Z,45.00
2018-07-08T03:46:08.768Z,50.63
2018-07-08T03:47:08.750Z,50.63
2018-07-08T03:48:08.736Z,50.63
2018-07-08T03:49:08.720Z,50.63
2018-07-08T03:50:08.705Z,56.25
2018-07-08T03:51:08.687Z,56.25
2018-07-08T03:52:08.677Z,56.25
2018-07-08T03:53:08.659Z,61.88
2018-07-08T03:54:08.642Z,61.88
2018-07-08T03:55:08.624Z,61.88
2018-07-08T03:56:08.612Z,67.50
2018-07-08T03:57:08.592Z,67.50
2018-07-08T03:58:08.578Z,67.50
2018-07-08T03:59:08.560Z,73.13
2018-07-08T04:00:08.546Z,73.13
2018-07-08T04:01:08.535Z,73.13
2018-07-08T04:02:08.517Z,78.75
2018-07-08T04:03:08.498Z,78.75
2018-07-08T04:04:08.487Z,78.75
2018-07-08T04:05:08.475Z,84.38
2018-07-08T04:06:08.453Z,84.38
2018-07-08T04:07:08.436Z,84.38
2018-07-08T04:08:08.427Z,84.38
2018-07-08T04:09:08.406Z,90.00
2018-07-08T04:10:08.393Z,90.00
2018-07-08T04:11:08.372Z,90.00
2018-07-08T04:12:08.407Z,95.63
2018-07-08T04:13:08.343Z,95.63
2018-07-08T04:14:08.327Z,95.63
2018-07-08T04:15:08.318Z,101.25
2018-07-08T04:16:08.300Z,101.25
2018-07-08T04:17:08.282Z,101.25
2018-07-08T04:18:08.265Z,106.88
2018-07-08T04:19:08.248Z,106.88
2018-07-08T04:20:08.235Z,106.88
2018-07-08T04:21:08.217Z,112.50
2018-07-08T04:22:08.203Z,112.50
2018-07-08T04:23:08.183Z,112.50
2018-07-08T04:24:08.171Z,118.13
2018-07-08T04:25:08.158Z,118.13
2018-07-08T04:26:08.147Z,118.13
2018-07-08T04:27:08.123Z,123.75
2018-07-08T04:28:08.107Z,123.75
2018-07-08T04:29:08.094Z,123.75
2018-07-08T04:30:08.077Z,129.38
2018-07-08T04:31:08.059Z,129.38
2018-07-08T04:32:08.062Z,129.38
2018-07-08T04:33:08.027Z,135.00
2018-07-08T04:34:08.013Z,135.00
2018-07-08T04:35:07.997Z,135.00
2018-07-08T04:36:07.980Z,140.63
2018-07-08T04:37:07.965Z,140.63
2018-07-08T04:38:07.959Z,146.25
2018-07-08T04:39:07.934Z,146.25
2018-07-08T04:40:07.920Z,146.25
2018-07-08T04:41:07.902Z,146.25
2018-07-08T04:42:07.887Z,151.88
2018-07-08T04:43:07.872Z,151.88
2018-07-08T04:44:07.858Z,157.50
2018-07-08T04:45:07.841Z,157.50
2018-07-08T04:46:07.827Z,157.50
2018-07-08T04:47:07.817Z,163.13
2018-07-08T04:48:07.793Z,163.13
2018-07-08T04:49:07.807Z,163.13
2018-07-08T04:50:07.763Z,163.13
2018-07-08T04:51:07.745Z,168.75
2018-07-08T04:52:07.733Z,168.75
2018-07-08T04:53:07.717Z,174.38
2018-07-08T04:54:07.702Z,174.38
2018-07-08T04:55:07.684Z,174.38
2018-07-08T04:56:07.670Z,180.00
2018-07-08T04:57:07.654Z,180.00
2018-07-08T04:58:07.639Z,180.00
2018-07-08T04:59:07.625Z,180.00
2018-07-08T05:00:07.609Z,180.00
2018-07-08T05:01:07.643Z,180.00
2018-07-08T05:02:07.577Z,185.63
2018-07-08T05:03:07.561Z,185.63
2018-07-08T05:04:07.545Z,191.25
2018-07-08T05:05:07.531Z,191.25
2018-07-08T05:06:07.521Z,196.88
2018-07-08T05:07:07.500Z,196.88
2018-07-08T05:08:07.484Z,196.88
2018-07-08T05:09:07.469Z,202.50
2018-07-08T05:10:07.455Z,202.50
2018-07-08T05:11:07.438Z,208.13
2018-07-08T05:12:07.425Z,208.13
2018-07-08T05:13:07.415Z,208.13
2018-07-08T05:14:07.391Z,213.75
2018-07-08T05:15:07.377Z,219.38
2018-07-08T05:16:07.360Z,219.38
2018-07-08T05:17:07.346Z,219.38
2018-07-08T05:18:07.330Z,225.00
2018-07-08T05:19:07.317Z,225.00
2018-07-08T05:20:07.302Z,225.00
2018-07-08T05:21:07.285Z,225.00
2018-07-08T05:22:07.269Z,230.63
2018-07-08T05:23:07.255Z,230.63
2018-07-08T05:24:07.238Z,230.63
2018-07-08T05:25:07.223Z,230.63
2018-07-08T05:26:07.209Z,236.25
2018-07-08T05:27:07.193Z,236.25
2018-07-08T05:28:07.177Z,230.63
2018-07-08T05:29:07.162Z,230.63
2018-07-08T05:30:07.149Z,230.63
2018-07-08T05:31:07.132Z,236.25
2018-07-08T05:32:07.117Z,241.88
2018-07-08T05:33:07.102Z,241.88
2018-07-08T05:34:07.088Z,247.50
2018-07-08T05:35:07.080Z,258.75
2018-07-08T05:36:07.056Z,253.13
2018-07-08T05:37:07.043Z,253.13
2018-07-08T05:38:07.034Z,258.75
2018-07-08T05:39:07.011Z,264.38
2018-07-08T05:40:06.994Z,264.38
2018-07-08T05:41:06.985Z,264.38
2018-07-08T05:42:06.966Z,275.63
2018-07-08T05:43:06.951Z,292.50
2018-07-08T05:44:06.936Z,320.63
2018-07-08T05:45:06.922Z,416.25
2018-07-08T05:46:06.906Z,770.63
2018-07-08T05:47:06.889Z,1051.88
2018-07-08T05:48:06.876Z,1153.13
2018-07-08T05:49:06.861Z,1305.00
2018-07-08T05:50:06.869Z,1406.25
2018-07-08T05:51:06.834Z,1440.00
2018-07-08T05:52:06.825Z,1541.25
2018-07-08T05:53:06.805Z,1636.88
2018-07-08T05:54:06.792Z,1681.88
2018-07-08T05:55:06.778Z,1788.75
2018-07-08T05:56:06.767Z,1839.38
2018-07-08T05:57:06.755Z,1816.88
2018-07-08T05:58:06.744Z,1743.75
2018-07-08T05:59:06.732Z,1738.13
2018-07-08T06:00:06.720Z,1738.13
2018-07-08T06:01:06.709Z,1755.00
2018-07-08T06:02:06.709Z,1771.88
2018-07-08T06:03:06.690Z,1743.75
2018-07-08T06:04:06.683Z,1805.63
2018-07-08T06:05:06.670Z,1811.25
2018-07-08T06:06:06.664Z,1755.00
2018-07-08T06:07:06.650Z,1766.25
2018-07-08T06:08:06.653Z,1895.63
2018-07-08T06:09:06.636Z,2041.88
2018-07-08T06:10:06.625Z,1957.50
2018-07-08T06:11:06.615Z,1923.75
2018-07-08T06:12:06.621Z,1890.00
2018-07-08T06:13:06.602Z,1980.00
2018-07-08T06:14:06.596Z,1968.75
2018-07-08T06:15:06.590Z,1935.00
2018-07-08T06:16:06.582Z,1923.75
2018-07-08T06:17:06.578Z,2013.75
2018-07-08T06:18:06.576Z,2115.00
2018-07-08T06:19:06.562Z,2120.63
2018-07-08T06:20:06.557Z,2086.88
2018-07-08T06:21:06.552Z,2086.88
2018-07-08T06:22:06.546Z,2154.38
2018-07-08T06:23:06.543Z,2171.25
2018-07-08T06:24:06.546Z,2143.13
2018-07-08T06:25:06.533Z,2368.13
2018-07-08T06:26:06.537Z,2441.25
2018-07-08T06:27:06.532Z,2272.50
2018-07-08T06:28:06.528Z,2165.63
2018-07-08T06:29:06.520Z,2221.88
2018-07-08T06:30:06.513Z,2379.38
2018-07-08T06:31:06.513Z,2514.38
2018-07-08T06:32:06.506Z,2565.00
2018-07-08T06:33:06.504Z,2632.50
2018-07-08T06:34:06.516Z,2238.75
2018-07-08T06:35:06.496Z,2441.25
2018-07-08T06:36:06.496Z,2548.13
2018-07-08T06:37:06.493Z,2581.88
2018-07-08T06:38:06.492Z,2311.88
2018-07-08T06:39:06.533Z,2373.75
2018-07-08T06:40:06.484Z,2401.88
2018-07-08T06:41:06.482Z,2531.25
2018-07-08T06:42:06.482Z,855.00
2018-07-08T06:43:06.479Z,1186.88
2018-07-08T06:44:06.526Z,2705.63
2018-07-08T06:45:06.475Z,2784.38
2018-07-08T06:46:06.480Z,2711.25
2018-07-08T06:47:06.483Z,2525.63
2018-07-08T06:48:06.471Z,2655.00
2018-07-08T06:49:06.468Z,2711.25
2018-07-08T06:50:06.467Z,2806.88
2018-07-08T06:51:06.466Z,2711.25
2018-07-08T06:52:06.486Z,1293.75
2018-07-08T06:53:06.467Z,1428.75
2018-07-08T06:54:06.463Z,2643.75
2018-07-08T06:55:06.462Z,2655.00
2018-07-08T06:56:06.461Z,2587.50
2018-07-08T06:57:06.510Z,2587.50
2018-07-08T06:58:06.459Z,2598.75
2018-07-08T06:59:06.457Z,2531.25
2018-07-08T07:00:06.457Z,2655.00
2018-07-08T07:01:06.456Z,2638.13
2018-07-08T07:02:06.457Z,2711.25
2018-07-08T07:03:06.465Z,2773.13
2018-07-08T07:04:06.455Z,2660.63
2018-07-08T07:05:06.456Z,2587.50
2018-07-08T07:06:06.456Z,2666.25
2018-07-08T07:07:06.463Z,2846.25
2018-07-08T07:08:06.458Z,2638.13
2018-07-08T07:09:06.457Z,2767.50
2018-07-08T07:10:06.458Z,2531.25
2018-07-08T07:11:06.457Z,1996.88
2018-07-08T07:12:06.458Z,2182.50
2018-07-08T07:13:06.461Z,2373.75
2018-07-08T07:14:06.461Z,2430.00
2018-07-08T07:15:06.468Z,663.75
2018-07-08T07:16:06.469Z,1395.00
2018-07-08T07:17:06.469Z,2970.00
2018-07-08T07:18:06.463Z,3313.13
2018-07-08T07:19:06.463Z,3076.88
2018-07-08T07:20:06.466Z,3498.75
2018-07-08T07:21:06.463Z,3751.88
2018-07-08T07:22:06.471Z,3583.13
2018-07-08T07:23:06.488Z,3448.13
2018-07-08T07:24:06.466Z,3414.38
2018-07-08T07:25:06.472Z,3121.88
2018-07-08T07:26:06.469Z,483.75
2018-07-08T07:27:06.470Z,523.13
2018-07-08T07:28:06.472Z,1293.75
2018-07-08T07:29:06.503Z,590.63
2018-07-08T07:30:06.493Z,3082.50
2018-07-08T07:31:06.472Z,2891.25
2018-07-08T07:32:06.474Z,3015.00
2018-07-08T07:33:06.482Z,2621.25
2018-07-08T07:34:06.477Z,2835.00
2018-07-08T07:35:06.474Z,2728.13
2018-07-08T07:36:06.473Z,2643.75
2018-07-08T07:37:06.498Z,2970.00
2018-07-08T07:38:06.476Z,3099.38
2018-07-08T07:39:06.483Z,2801.25
2018-07-08T07:40:06.479Z,1873.13
2018-07-08T07:41:06.485Z,849.38
2018-07-08T07:42:06.482Z,438.75
2018-07-08T07:43:06.475Z,444.38
2018-07-08T07:44:06.475Z,455.63
2018-07-08T07:45:06.476Z,483.75
2018-07-08T07:46:06.479Z,466.88
2018-07-08T07:47:06.473Z,438.75
2018-07-08T07:48:06.472Z,433.13
2018-07-08T07:49:06.468Z,438.75
2018-07-08T07:50:06.466Z,444.38
2018-07-08T07:51:06.545Z,556.88
2018-07-08T07:52:06.469Z,489.38
2018-07-08T07:53:06.457Z,500.63
2018-07-08T07:54:06.454Z,495.00
2018-07-08T07:55:06.452Z,528.75
2018-07-08T07:56:06.446Z,500.63
2018-07-08T07:57:06.441Z,438.75
2018-07-08T07:58:06.447Z,495.00
2018-07-08T07:59:06.513Z,455.63
2018-07-08T08:00:06.439Z,495.00
2018-07-08T08:01:06.424Z,455.63
2018-07-08T08:02:06.423Z,466.88
2018-07-08T08:03:06.415Z,461.25
2018-07-08T08:04:06.410Z,478.13
2018-07-08T08:05:06.410Z,466.88
2018-07-08T08:06:06.400Z,466.88
2018-07-08T08:07:06.389Z,472.50
2018-07-08T08:08:06.386Z,495.00
2018-07-08T08:09:06.380Z,731.25
2018-07-08T08:10:06.382Z,461.25
2018-07-08T08:11:06.375Z,461.25
2018-07-08T08:12:06.361Z,455.63
2018-07-08T08:13:06.394Z,444.38
2018-07-08T08:14:06.347Z,444.38
2018-07-08T08:15:06.341Z,883.13
2018-07-08T08:16:06.340Z,748.13
2018-07-08T08:17:06.326Z,1479.38
2018-07-08T08:18:06.321Z,787.50
2018-07-08T08:19:06.314Z,365.63
2018-07-08T08:20:06.307Z,781.88
2018-07-08T08:21:06.378Z,365.63
2018-07-08T08:22:06.295Z,365.63
2018-07-08T08:23:06.286Z,354.38
2018-07-08T08:24:06.294Z,556.88
2018-07-08T08:25:06.272Z,450.00
2018-07-08T08:26:06.265Z,360.00
2018-07-08T08:27:06.257Z,613.13
2018-07-08T08:28:06.253Z,348.75
2018-07-08T08:29:06.243Z,360.00
2018-07-08T08:30:06.236Z,348.75
2018-07-08T08:31:06.235Z,365.63
2018-07-08T08:32:06.220Z,354.38
2018-07-08T08:33:06.216Z,348.75
2018-07-08T08:34:06.206Z,348.75
2018-07-08T08:35:06.206Z,348.75
2018-07-08T08:36:06.191Z,348.75
2018-07-08T08:37:06.181Z,354.38
2018-07-08T08:38:06.222Z,354.38
2018-07-08T08:39:06.164Z,613.13
2018-07-08T08:40:06.155Z,624.38
2018-07-08T08:41:06.147Z,360.00
2018-07-08T08:42:06.139Z,348.75
2018-07-08T08:43:06.133Z,354.38
2018-07-08T08:44:06.123Z,348.75
2018-07-08T08:45:06.115Z,360.00
2018-07-08T08:46:06.105Z,360.00
2018-07-08T08:47:06.107Z,444.38
2018-07-08T08:48:06.098Z,483.75
2018-07-08T08:49:06.078Z,798.75
2018-07-08T08:50:06.071Z,658.13
2018-07-08T08:51:06.062Z,838.13
2018-07-08T08:52:06.051Z,393.75
2018-07-08T08:53:06.050Z,405.00
2018-07-08T08:54:06.041Z,630.00
2018-07-08T08:55:06.033Z,961.88
2018-07-08T08:56:06.016Z,410.63
2018-07-08T08:57:06.007Z,618.75
2018-07-08T08:58:06.005Z,765.00
2018-07-08T08:59:05.990Z,675.00
2018-07-08T09:00:06.005Z,703.13
2018-07-08T09:01:05.974Z,894.38
2018-07-08T09:02:05.965Z,506.25
2018-07-08T09:03:05.955Z,551.25
2018-07-08T09:04:05.953Z,551.25
2018-07-08T09:05:05.938Z,686.25
2018-07-08T09:06:05.931Z,607.50
2018-07-08T09:07:05.922Z,658.13
2018-07-08T09:08:05.916Z,804.38
2018-07-08T09:09:05.903Z,703.13
2018-07-08T09:10:05.896Z,613.13
2018-07-08T09:11:05.887Z,905.63
2018-07-08T09:12:05.879Z,1271.25
2018-07-08T09:13:05.881Z,1575.00
2018-07-08T09:14:05.864Z,1552.50
2018-07-08T09:15:05.858Z,3403.13
2018-07-08T09:16:05.855Z,4089.38
2018-07-08T09:17:05.846Z,3937.50
2018-07-08T09:18:05.839Z,3841.88
2018-07-08T09:19:05.830Z,4038.75
2018-07-08T09:20:05.834Z,4005.00
2018-07-08T09:21:05.817Z,4606.88
2018-07-08T09:22:05.813Z,4584.38
2018-07-08T09:23:05.808Z,4106.25
2018-07-08T09:24:05.869Z,2036.25
2018-07-08T09:25:05.800Z,646.88
2018-07-08T09:26:05.796Z,607.50
2018-07-08T09:27:05.792Z,635.63
2018-07-08T09:28:05.785Z,3690.00
2018-07-08T09:29:05.786Z,3920.63
2018-07-08T09:30:05.773Z,2846.25
2018-07-08T09:31:05.771Z,1085.63
2018-07-08T09:32:05.768Z,686.25
2018-07-08T09:33:05.770Z,720.00
2018-07-08T09:34:05.757Z,1580.63
2018-07-08T09:35:05.765Z,933.75
2018-07-08T09:36:05.750Z,765.00
2018-07-08T09:37:05.747Z,4494.38
2018-07-08T09:38:05.744Z,2053.13
2018-07-08T09:39:05.821Z,2953.13
2018-07-08T09:40:05.734Z,3121.88
2018-07-08T09:41:05.734Z,2778.75
2018-07-08T09:42:05.727Z,2058.75
2018-07-08T09:43:05.730Z,4280.63
2018-07-08T09:44:05.723Z,4303.13
2018-07-08T09:45:05.728Z,4483.13
2018-07-08T09:46:05.724Z,1822.50
2018-07-08T09:47:05.725Z,3088.13
2018-07-08T09:48:05.717Z,461.25
2018-07-08T09:49:05.711Z,1305.00
2018-07-08T09:50:05.717Z,466.88
2018-07-08T09:51:05.706Z,708.75
2018-07-08T09:52:05.703Z,540.00
2018-07-08T09:53:05.707Z,1366.88
2018-07-08T09:54:05.698Z,843.75
2018-07-08T09:55:05.701Z,753.75
2018-07-08T09:56:05.692Z,860.63
2018-07-08T09:57:05.697Z,4190.63
2018-07-08T09:58:05.709Z,736.88
2018-07-08T09:59:05.691Z,3763.13
2018-07-08T10:00:05.677Z,900.00
2018-07-08T10:01:05.673Z,1625.63
2018-07-08T10:02:05.674Z,2261.25
2018-07-08T10:03:05.671Z,3172.50
2018-07-08T10:04:05.663Z,2598.75
2018-07-08T10:05:05.657Z,2025.00
2018-07-08T10:06:05.662Z,1411.88
2018-07-08T10:07:05.652Z,1873.13
2018-07-08T10:08:05.657Z,916.88
2018-07-08T10:09:05.645Z,2542.50
2018-07-08T10:10:05.644Z,1698.75
2018-07-08T10:11:05.648Z,1215.00
2018-07-08T10:12:05.648Z,793.13
2018-07-08T10:13:05.641Z,1102.50
2018-07-08T10:14:05.716Z,4646.25
2018-07-08T10:15:05.640Z,4156.88
2018-07-08T10:16:05.629Z,4871.25
2018-07-08T10:17:05.636Z,2581.88
2018-07-08T10:18:05.625Z,4792.50
2018-07-08T10:19:05.638Z,4792.50
2018-07-08T10:20:05.642Z,5040.00
2018-07-08T10:21:05.624Z,5017.50
2018-07-08T10:22:05.623Z,4871.25
2018-07-08T10:23:05.623Z,4871.25
2018-07-08T10:24:05.639Z,4955.63
2018-07-08T10:25:05.627Z,4978.13
2018-07-08T10:26:05.645Z,4938.75
2018-07-08T10:27:05.633Z,4831.88
2018-07-08T10:28:05.637Z,4871.25
2018-07-08T10:29:05.636Z,5090.63
2018-07-08T10:30:05.656Z,5242.50
2018-07-08T10:31:05.641Z,5146.88
2018-07-08T10:32:05.645Z,5236.88
2018-07-08T10:33:05.647Z,5371.88
2018-07-08T10:34:05.665Z,5315.63
2018-07-08T10:35:05.671Z,5236.88
2018-07-08T10:36:05.664Z,5191.88
2018-07-08T10:37:05.676Z,5101.88
2018-07-08T10:38:05.710Z,5146.88
2018-07-08T10:39:05.689Z,5118.75
2018-07-08T10:40:05.685Z,5113.13
2018-07-08T10:41:05.690Z,4860.00
2018-07-08T10:42:05.695Z,4550.63
2018-07-08T10:43:05.711Z,4730.63
2018-07-08T10:44:05.706Z,4770.00
2018-07-08T10:45:05.712Z,4488.75
2018-07-08T10:46:05.717Z,4567.50
2018-07-08T10:47:05.730Z,4809.38
2018-07-08T10:48:05.732Z,4848.75
2018-07-08T10:49:05.748Z,4601.25
2018-07-08T10:50:05.784Z,4629.38
2018-07-08T10:51:05.752Z,5085.00
2018-07-08T10:52:05.753Z,4950.00
2018-07-08T10:53:05.760Z,4657.50
2018-07-08T10:54:05.767Z,4786.88
2018-07-08T10:55:05.776Z,4786.88
2018-07-08T10:56:05.780Z,4561.88
2018-07-08T10:57:05.802Z,4516.88
2018-07-08T10:58:05.792Z,4381.88
2018-07-08T10:59:05.806Z,4398.75
2018-07-08T11:00:05.809Z,4578.75
2018-07-08T11:01:05.813Z,4786.88
2018-07-08T11:02:05.820Z,4826.25
2018-07-08T11:03:05.823Z,4725.00
2018-07-08T11:04:05.834Z,4950.00
2018-07-08T11:05:05.846Z,4860.00
2018-07-08T11:06:05.849Z,4275.00
2018-07-08T11:07:05.859Z,4246.88
2018-07-08T11:08:05.873Z,4680.00
2018-07-08T11:09:05.874Z,4854.38
2018-07-08T11:10:05.874Z,4646.25
2018-07-08T11:11:05.888Z,4556.25
2018-07-08T11:12:05.904Z,4595.63
2018-07-08T11:13:05.921Z,4550.63
2018-07-08T11:14:05.913Z,4539.38
2018-07-08T11:15:05.915Z,4590.00
2018-07-08T11:16:06.020Z,4646.25
2018-07-08T11:17:05.922Z,4601.25
2018-07-08T11:18:05.929Z,4500.00
2018-07-08T11:19:05.934Z,4618.13
2018-07-08T11:20:05.978Z,4573.13
2018-07-08T11:21:05.949Z,4657.50
2018-07-08T11:22:05.963Z,4680.00
2018-07-08T11:23:05.958Z,4713.75
2018-07-08T11:24:05.971Z,4612.50
2018-07-08T11:25:05.988Z,4561.88
2018-07-08T11:26:05.989Z,4595.63
2018-07-08T11:27:06.003Z,4663.13
2018-07-08T11:28:05.998Z,4348.13
2018-07-08T11:29:06.026Z,3976.88
2018-07-08T11:30:06.018Z,4269.38
2018-07-08T11:31:06.024Z,4443.75
2018-07-08T11:32:06.029Z,4258.13
2018-07-08T11:33:06.041Z,4320.00
2018-07-08T11:34:06.045Z,4342.50
2018-07-08T11:35:06.042Z,4477.50
2018-07-08T11:36:06.049Z,4443.75
2018-07-08T11:37:06.065Z,4522.50
2018-07-08T11:38:06.102Z,4471.88
2018-07-08T11:39:06.072Z,4455.00
2018-07-08T11:40:06.082Z,4511.25
2018-07-08T11:41:06.086Z,4494.38
2018-07-08T11:42:06.089Z,3774.38
2018-07-08T11:43:06.102Z,3667.50
2018-07-08T11:44:06.102Z,4342.50
2018-07-08T11:45:06.110Z,4275.00
2018-07-08T11:46:06.123Z,4145.63
2018-07-08T11:47:06.119Z,4291.88
2018-07-08T11:48:06.126Z,4342.50
2018-07-08T11:49:06.132Z,2812.50
2018-07-08T11:50:06.153Z,776.25
2018-07-08T11:51:06.139Z,343.13
2018-07-08T11:52:06.145Z,309.38
2018-07-08T11:53:06.165Z,292.50
2018-07-08T11:54:06.158Z,286.88
2018-07-08T11:55:06.163Z,286.88
2018-07-08T11:56:06.161Z,281.25
2018-07-08T11:57:06.172Z,275.63
2018-07-08T11:58:06.173Z,275.63
2018-07-08T11:59:06.177Z,275.63
2018-07-08T12:00:06.167Z,270.00
2018-07-08T12:01:06.168Z,270.00
2018-07-08T12:02:06.183Z,270.00
2018-07-08T12:03:06.168Z,270.00
2018-07-08T12:04:06.167Z,270.00
2018-07-08T12:05:06.205Z,270.00
2018-07-08T12:06:06.167Z,264.38
2018-07-08T12:07:06.165Z,264.38
2018-07-08T12:08:06.164Z,264.38
2018-07-08T12:09:06.161Z,264.38
2018-07-08T12:10:06.167Z,264.38
2018-07-08T12:11:06.156Z,264.38
2018-07-08T12:12:06.155Z,264.38
2018-07-08T12:13:06.150Z,264.38
2018-07-08T12:14:06.151Z,264.38
2018-07-08T12:16:46.596Z,264.38
2018-07-08T12:17:45.782Z,264.38
2018-07-08T12:18:45.782Z,264.38
2018-07-08T12:19:45.768Z,264.38
2018-07-08T12:20:45.763Z,264.38
2018-07-08T12:21:45.760Z,264.38
2018-07-08T12:22:45.752Z,264.38
2018-07-08T12:23:45.755Z,264.38
2018-07-08T12:24:45.748Z,264.38
2018-07-08T12:25:45.743Z,264.38
2018-07-08T12:26:45.740Z,264.38
2018-07-08T12:27:45.796Z,264.38
2018-07-08T12:28:45.733Z,264.38
2018-07-08T12:30:35.106Z,270.00
2018-07-08T12:31:35.104Z,264.38
2018-07-08T12:32:35.105Z,264.38
2018-07-08T12:33:35.101Z,264.38
2018-07-08T12:34:35.086Z,258.75
2018-07-08T12:35:35.077Z,258.75
2018-07-08T12:36:35.071Z,258.75